sensor_id;sensor_type;location;lat;lon;timestamp;P1;durP1;ratioP1;P2;durP2;ratioP2
19002;SDS011;9634;51.040;13.794;2022-07-17T00:01:52;10.80;;;4.20;;
19002;SDS011;9634;51.040;13.794;2022-07-17T00:06:54;10.03;;;4.33;;
19002;SDS011;9634;51.040;13.794;2022-07-17T00:11:58;10.33;;;4.17;;
19002;SDS011;9634;51.040;13.794;2022-07-17T00:17:00;7.93;;;4.30;;
19002;SDS011;9634;51.040;13.794;2022-07-17T00:22:03;8.77;;;3.43;;
19002;SDS011;9634;51.040;13.794;2022-07-17T00:27:07;12.57;;;4.20;;
19002;SDS011;9634;51.040;13.794;2022-07-17T00:32:09;6.73;;;3.57;;
19002;SDS011;9634;51.040;13.794;2022-07-17T00:37:11;8.70;;;3.60;;
19002;SDS011;9634;51.040;13.794;2022-07-17T00:42:15;7.97;;;3.20;;
19002;SDS011;9634;51.040;13.794;2022-07-17T00:47:19;9.60;;;4.20;;
19002;SDS011;9634;51.040;13.794;2022-07-17T00:52:22;8.80;;;4.43;;
19002;SDS011;9634;51.040;13.794;2022-07-17T00:57:26;13.03;;;3.73;;
19002;SDS011;9634;51.040;13.794;2022-07-17T01:02:29;7.33;;;3.50;;
19002;SDS011;9634;51.040;13.794;2022-07-17T01:07:32;8.43;;;4.17;;
19002;SDS011;9634;51.040;13.794;2022-07-17T01:12:36;10.20;;;3.53;;
19002;SDS011;9634;51.040;13.794;2022-07-17T01:17:39;6.87;;;2.63;;
19002;SDS011;9634;51.040;13.794;2022-07-17T01:22:43;5.93;;;2.80;;
19002;SDS011;9634;51.040;13.794;2022-07-17T01:27:46;4.97;;;2.77;;
19002;SDS011;9634;51.040;13.794;2022-07-17T01:32:49;7.23;;;2.80;;
19002;SDS011;9634;51.040;13.794;2022-07-17T01:37:53;9.03;;;2.87;;
19002;SDS011;9634;51.040;13.794;2022-07-17T01:42:55;7.30;;;2.40;;
19002;SDS011;9634;51.040;13.794;2022-07-17T01:47:58;3.93;;;1.80;;
19002;SDS011;9634;51.040;13.794;2022-07-17T01:53:02;8.70;;;2.77;;
19002;SDS011;9634;51.040;13.794;2022-07-17T01:58:04;5.93;;;2.23;;
19002;SDS011;9634;51.040;13.794;2022-07-17T02:03:06;5.23;;;2.30;;
19002;SDS011;9634;51.040;13.794;2022-07-17T02:08:10;4.97;;;1.90;;
19002;SDS011;9634;51.040;13.794;2022-07-17T02:13:13;5.33;;;2.40;;
19002;SDS011;9634;51.040;13.794;2022-07-17T02:18:15;4.00;;;2.43;;
19002;SDS011;9634;51.040;13.794;2022-07-17T02:23:19;9.13;;;5.07;;
19002;SDS011;9634;51.040;13.794;2022-07-17T02:28:21;8.60;;;4.70;;
19002;SDS011;9634;51.040;13.794;2022-07-17T02:33:24;9.80;;;4.43;;
19002;SDS011;9634;51.040;13.794;2022-07-17T02:38:27;11.33;;;3.90;;
19002;SDS011;9634;51.040;13.794;2022-07-17T02:43:30;9.13;;;4.00;;
19002;SDS011;9634;51.040;13.794;2022-07-17T02:48:32;8.20;;;3.87;;
19002;SDS011;9634;51.040;13.794;2022-07-17T02:53:36;8.27;;;3.53;;
19002;SDS011;9634;51.040;13.794;2022-07-17T02:58:38;6.80;;;3.33;;
19002;SDS011;9634;51.040;13.794;2022-07-17T03:03:43;7.63;;;3.20;;
19002;SDS011;9634;51.040;13.794;2022-07-17T03:08:47;11.40;;;3.63;;
19002;SDS011;9634;51.040;13.794;2022-07-17T03:13:51;7.50;;;3.13;;
19002;SDS011;9634;51.040;13.794;2022-07-17T03:18:53;8.13;;;3.50;;
19002;SDS011;9634;51.040;13.794;2022-07-17T03:23:56;8.07;;;3.30;;
19002;SDS011;9634;51.040;13.794;2022-07-17T03:28:59;8.47;;;4.07;;
19002;SDS011;9634;51.040;13.794;2022-07-17T03:34:01;7.13;;;2.40;;
19002;SDS011;9634;51.040;13.794;2022-07-17T03:39:05;9.03;;;3.03;;
19002;SDS011;9634;51.040;13.794;2022-07-17T03:44:08;7.27;;;2.60;;
19002;SDS011;9634;51.040;13.794;2022-07-17T03:49:10;8.90;;;2.53;;
19002;SDS011;9634;51.040;13.794;2022-07-17T03:54:14;10.03;;;2.53;;
19002;SDS011;9634;51.040;13.794;2022-07-17T03:59:16;5.77;;;2.10;;
19002;SDS011;9634;51.040;13.794;2022-07-17T04:04:18;5.47;;;1.60;;
19002;SDS011;9634;51.040;13.794;2022-07-17T04:09:23;3.27;;;1.80;;
19002;SDS011;9634;51.040;13.794;2022-07-17T04:14:25;6.07;;;1.90;;
19002;SDS011;9634;51.040;13.794;2022-07-17T04:19:28;6.73;;;2.53;;
19002;SDS011;9634;51.040;13.794;2022-07-17T04:24:31;4.33;;;2.07;;
19002;SDS011;9634;51.040;13.794;2022-07-17T04:29:34;4.60;;;1.70;;
19002;SDS011;9634;51.040;13.794;2022-07-17T04:34:36;6.53;;;2.33;;
19002;SDS011;9634;51.040;13.794;2022-07-17T04:39:40;7.90;;;1.90;;
19002;SDS011;9634;51.040;13.794;2022-07-17T04:44:43;6.67;;;2.10;;
19002;SDS011;9634;51.040;13.794;2022-07-17T04:49:45;5.43;;;1.87;;
19002;SDS011;9634;51.040;13.794;2022-07-17T04:54:49;8.00;;;2.17;;
19002;SDS011;9634;51.040;13.794;2022-07-17T04:59:51;5.87;;;2.10;;
19002;SDS011;9634;51.040;13.794;2022-07-17T05:04:54;6.67;;;2.07;;
19002;SDS011;9634;51.040;13.794;2022-07-17T05:09:58;3.07;;;1.87;;
19002;SDS011;9634;51.040;13.794;2022-07-17T05:15:00;5.17;;;1.90;;
19002;SDS011;9634;51.040;13.794;2022-07-17T05:20:03;7.50;;;1.80;;
19002;SDS011;9634;51.040;13.794;2022-07-17T05:25:08;8.37;;;1.80;;
19002;SDS011;9634;51.040;13.794;2022-07-17T05:30:11;8.37;;;1.70;;
19002;SDS011;9634;51.040;13.794;2022-07-17T05:35:13;3.43;;;1.40;;
19002;SDS011;9634;51.040;13.794;2022-07-17T05:40:17;8.47;;;1.93;;
19002;SDS011;9634;51.040;13.794;2022-07-17T05:45:19;7.67;;;1.50;;
19002;SDS011;9634;51.040;13.794;2022-07-17T05:50:22;3.30;;;1.40;;
19002;SDS011;9634;51.040;13.794;2022-07-17T05:55:26;6.27;;;1.60;;
19002;SDS011;9634;51.040;13.794;2022-07-17T06:00:28;6.53;;;1.60;;
19002;SDS011;9634;51.040;13.794;2022-07-17T06:05:31;5.03;;;1.83;;
19002;SDS011;9634;51.040;13.794;2022-07-17T06:10:34;5.27;;;2.27;;
19002;SDS011;9634;51.040;13.794;2022-07-17T06:15:38;5.50;;;1.60;;
19002;SDS011;9634;51.040;13.794;2022-07-17T06:20:40;4.00;;;1.30;;
19002;SDS011;9634;51.040;13.794;2022-07-17T06:25:44;4.00;;;1.87;;
19002;SDS011;9634;51.040;13.794;2022-07-17T06:30:46;4.63;;;1.30;;
19002;SDS011;9634;51.040;13.794;2022-07-17T06:35:49;6.67;;;1.30;;
19002;SDS011;9634;51.040;13.794;2022-07-17T06:40:53;6.27;;;2.30;;
19002;SDS011;9634;51.040;13.794;2022-07-17T06:45:55;6.17;;;1.73;;
19002;SDS011;9634;51.040;13.794;2022-07-17T06:50:57;6.00;;;1.43;;
19002;SDS011;9634;51.040;13.794;2022-07-17T06:56:01;5.87;;;1.30;;
19002;SDS011;9634;51.040;13.794;2022-07-17T07:01:03;4.70;;;1.17;;
19002;SDS011;9634;51.040;13.794;2022-07-17T07:06:06;7.43;;;1.30;;
19002;SDS011;9634;51.040;13.794;2022-07-17T07:11:10;9.50;;;1.57;;
19002;SDS011;9634;51.040;13.794;2022-07-17T07:16:12;2.90;;;0.80;;
19002;SDS011;9634;51.040;13.794;2022-07-17T07:21:14;4.87;;;0.87;;
19002;SDS011;9634;51.040;13.794;2022-07-17T07:26:18;2.17;;;0.80;;
19002;SDS011;9634;51.040;13.794;2022-07-17T07:31:21;7.45;;;1.25;;
19002;SDS011;9634;51.040;13.794;2022-07-17T07:36:23;6.63;;;1.17;;
19002;SDS011;9634;51.040;13.794;2022-07-17T07:41:27;7.80;;;2.07;;
19002;SDS011;9634;51.040;13.794;2022-07-17T07:46:29;4.17;;;1.03;;
19002;SDS011;9634;51.040;13.794;2022-07-17T07:51:32;2.50;;;1.00;;
19002;SDS011;9634;51.040;13.794;2022-07-17T07:56:35;2.63;;;0.80;;
19002;SDS011;9634;51.040;13.794;2022-07-17T08:01:38;6.70;;;0.70;;
19002;SDS011;9634;51.040;13.794;2022-07-17T08:06:40;7.00;;;1.00;;
19002;SDS011;9634;51.040;13.794;2022-07-17T08:11:44;5.93;;;1.00;;
19002;SDS011;9634;51.040;13.794;2022-07-17T08:16:46;7.67;;;1.17;;
19002;SDS011;9634;51.040;13.794;2022-07-17T08:21:49;4.20;;;1.07;;
19002;SDS011;9634;51.040;13.794;2022-07-17T08:26:53;4.60;;;1.57;;
19002;SDS011;9634;51.040;13.794;2022-07-17T08:31:55;5.83;;;1.00;;
19002;SDS011;9634;51.040;13.794;2022-07-17T08:36:57;4.53;;;1.20;;
19002;SDS011;9634;51.040;13.794;2022-07-17T08:42:02;4.87;;;1.00;;
19002;SDS011;9634;51.040;13.794;2022-07-17T08:47:08;5.77;;;1.00;;
19002;SDS011;9634;51.040;13.794;2022-07-17T08:52:12;7.80;;;2.30;;
19002;SDS011;9634;51.040;13.794;2022-07-17T08:57:16;4.30;;;1.03;;
19002;SDS011;9634;51.040;13.794;2022-07-17T09:02:20;9.63;;;1.10;;
19002;SDS011;9634;51.040;13.794;2022-07-17T09:07:22;3.83;;;1.13;;
19002;SDS011;9634;51.040;13.794;2022-07-17T09:12:27;5.53;;;1.00;;
19002;SDS011;9634;51.040;13.794;2022-07-17T09:17:30;5.70;;;0.90;;
19002;SDS011;9634;51.040;13.794;2022-07-17T09:22:34;3.33;;;0.90;;
19002;SDS011;9634;51.040;13.794;2022-07-17T09:27:38;4.70;;;0.87;;
19002;SDS011;9634;51.040;13.794;2022-07-17T09:32:41;3.17;;;1.20;;
19002;SDS011;9634;51.040;13.794;2022-07-17T09:37:43;4.73;;;1.40;;
19002;SDS011;9634;51.040;13.794;2022-07-17T09:42:47;6.27;;;1.10;;
19002;SDS011;9634;51.040;13.794;2022-07-17T09:47:56;5.00;;;1.00;;
19002;SDS011;9634;51.040;13.794;2022-07-17T09:52:59;3.80;;;1.00;;
19002;SDS011;9634;51.040;13.794;2022-07-17T09:58:04;5.73;;;1.03;;
19002;SDS011;9634;51.040;13.794;2022-07-17T10:03:07;2.80;;;0.90;;
19002;SDS011;9634;51.040;13.794;2022-07-17T10:08:10;3.67;;;1.33;;
19002;SDS011;9634;51.040;13.794;2022-07-17T10:13:14;5.57;;;0.97;;
19002;SDS011;9634;51.040;13.794;2022-07-17T10:18:17;7.20;;;1.00;;
19002;SDS011;9634;51.040;13.794;2022-07-17T10:23:22;8.43;;;1.57;;
19002;SDS011;9634;51.040;13.794;2022-07-17T10:28:26;7.17;;;1.00;;
19002;SDS011;9634;51.040;13.794;2022-07-17T10:33:43;5.87;;;1.00;;
19002;SDS011;9634;51.040;13.794;2022-07-17T10:38:56;4.53;;;0.80;;
19002;SDS011;9634;51.040;13.794;2022-07-17T10:44:01;3.53;;;1.35;;
19002;SDS011;9634;51.040;13.794;2022-07-17T10:49:03;3.30;;;1.02;;
19002;SDS011;9634;51.040;13.794;2022-07-17T10:54:06;5.45;;;1.10;;
19002;SDS011;9634;51.040;13.794;2022-07-17T10:59:10;3.55;;;1.23;;
19002;SDS011;9634;51.040;13.794;2022-07-17T11:04:13;2.58;;;0.80;;
19002;SDS011;9634;51.040;13.794;2022-07-17T11:09:15;3.10;;;0.90;;
19002;SDS011;9634;51.040;13.794;2022-07-17T11:14:19;4.60;;;1.00;;
19002;SDS011;9634;51.040;13.794;2022-07-17T11:19:26;4.32;;;1.10;;
19002;SDS011;9634;51.040;13.794;2022-07-17T11:24:35;6.28;;;0.90;;
19002;SDS011;9634;51.040;13.794;2022-07-17T11:29:39;6.18;;;1.10;;
19002;SDS011;9634;51.040;13.794;2022-07-17T11:34:42;2.55;;;0.90;;
19002;SDS011;9634;51.040;13.794;2022-07-17T11:39:45;3.05;;;0.90;;
19002;SDS011;9634;51.040;13.794;2022-07-17T11:44:50;3.95;;;0.90;;
19002;SDS011;9634;51.040;13.794;2022-07-17T11:50:05;3.22;;;1.10;;
19002;SDS011;9634;51.040;13.794;2022-07-17T11:55:15;2.95;;;0.82;;
19002;SDS011;9634;51.040;13.794;2022-07-17T12:00:20;4.10;;;0.95;;
19002;SDS011;9634;51.040;13.794;2022-07-17T12:05:24;3.30;;;0.88;;
19002;SDS011;9634;51.040;13.794;2022-07-17T12:10:28;3.75;;;0.82;;
19002;SDS011;9634;51.040;13.794;2022-07-17T12:15:35;5.25;;;1.00;;
19002;SDS011;9634;51.040;13.794;2022-07-17T12:20:42;4.85;;;1.10;;
19002;SDS011;9634;51.040;13.794;2022-07-17T12:25:45;4.43;;;1.23;;
19002;SDS011;9634;51.040;13.794;2022-07-17T12:30:49;6.00;;;1.23;;
19002;SDS011;9634;51.040;13.794;2022-07-17T12:35:51;5.57;;;1.30;;
19002;SDS011;9634;51.040;13.794;2022-07-17T12:40:53;2.20;;;0.85;;
19002;SDS011;9634;51.040;13.794;2022-07-17T12:45:58;4.28;;;1.00;;
19002;SDS011;9634;51.040;13.794;2022-07-17T12:51:00;3.42;;;0.93;;
19002;SDS011;9634;51.040;13.794;2022-07-17T12:56:04;4.47;;;0.80;;
19002;SDS011;9634;51.040;13.794;2022-07-17T13:01:08;4.03;;;0.98;;
19002;SDS011;9634;51.040;13.794;2022-07-17T13:06:11;3.20;;;0.93;;
19002;SDS011;9634;51.040;13.794;2022-07-17T13:11:13;4.30;;;1.15;;
19002;SDS011;9634;51.040;13.794;2022-07-17T13:16:17;2.42;;;1.00;;
19002;SDS011;9634;51.040;13.794;2022-07-17T13:21:20;2.33;;;0.90;;
19002;SDS011;9634;51.040;13.794;2022-07-17T13:26:22;5.63;;;1.90;;
19002;SDS011;9634;51.040;13.794;2022-07-17T13:31:26;3.40;;;0.95;;
19002;SDS011;9634;51.040;13.794;2022-07-17T13:36:28;2.65;;;1.13;;
19002;SDS011;9634;51.040;13.794;2022-07-17T13:41:31;4.57;;;1.50;;
19002;SDS011;9634;51.040;13.794;2022-07-17T13:46:35;3.80;;;1.30;;
19002;SDS011;9634;51.040;13.794;2022-07-17T13:51:37;1.27;;;0.82;;
19002;SDS011;9634;51.040;13.794;2022-07-17T13:56:39;4.20;;;1.23;;
19002;SDS011;9634;51.040;13.794;2022-07-17T14:01:43;3.97;;;1.35;;
19002;SDS011;9634;51.040;13.794;2022-07-17T14:06:46;3.58;;;1.30;;
19002;SDS011;9634;51.040;13.794;2022-07-17T14:11:48;10.55;;;2.40;;
19002;SDS011;9634;51.040;13.794;2022-07-17T14:16:52;4.65;;;1.30;;
19002;SDS011;9634;51.040;13.794;2022-07-17T14:21:54;2.55;;;1.20;;
19002;SDS011;9634;51.040;13.794;2022-07-17T14:26:57;2.58;;;0.80;;
19002;SDS011;9634;51.040;13.794;2022-07-17T14:32:00;2.33;;;1.00;;
19002;SDS011;9634;51.040;13.794;2022-07-17T14:37:03;4.25;;;2.17;;
19002;SDS011;9634;51.040;13.794;2022-07-17T14:42:07;4.95;;;1.00;;
19002;SDS011;9634;51.040;13.794;2022-07-17T14:47:11;4.97;;;1.10;;
19002;SDS011;9634;51.040;13.794;2022-07-17T14:52:16;2.55;;;1.10;;
19002;SDS011;9634;51.040;13.794;2022-07-17T14:57:18;2.65;;;1.20;;
19002;SDS011;9634;51.040;13.794;2022-07-17T15:02:22;3.63;;;1.38;;
19002;SDS011;9634;51.040;13.794;2022-07-17T15:07:24;3.38;;;1.05;;
19002;SDS011;9634;51.040;13.794;2022-07-17T15:12:26;4.15;;;1.13;;
19002;SDS011;9634;51.040;13.794;2022-07-17T15:17:30;2.40;;;1.40;;
19002;SDS011;9634;51.040;13.794;2022-07-17T15:22:32;4.00;;;1.27;;
19002;SDS011;9634;51.040;13.794;2022-07-17T15:27:35;6.30;;;1.10;;
19002;SDS011;9634;51.040;13.794;2022-07-17T15:32:39;6.05;;;1.30;;
19002;SDS011;9634;51.040;13.794;2022-07-17T15:37:41;1.27;;;0.93;;
19002;SDS011;9634;51.040;13.794;2022-07-17T15:42:43;5.18;;;1.38;;
19002;SDS011;9634;51.040;13.794;2022-07-17T15:47:47;2.75;;;1.38;;
19002;SDS011;9634;51.040;13.794;2022-07-17T15:52:50;4.90;;;1.65;;
19002;SDS011;9634;51.040;13.794;2022-07-17T15:57:52;1.88;;;0.75;;
19002;SDS011;9634;51.040;13.794;2022-07-17T16:02:57;3.85;;;0.80;;
19002;SDS011;9634;51.040;13.794;2022-07-17T16:07:59;3.78;;;1.00;;
19002;SDS011;9634;51.040;13.794;2022-07-17T16:13:02;4.25;;;0.93;;
19002;SDS011;9634;51.040;13.794;2022-07-17T16:18:05;4.45;;;0.82;;
19002;SDS011;9634;51.040;13.794;2022-07-17T16:23:08;1.95;;;1.00;;
19002;SDS011;9634;51.040;13.794;2022-07-17T16:28:10;3.10;;;1.10;;
19002;SDS011;9634;51.040;13.794;2022-07-17T16:33:14;6.28;;;1.10;;
19002;SDS011;9634;51.040;13.794;2022-07-17T16:38:16;2.85;;;0.90;;
19002;SDS011;9634;51.040;13.794;2022-07-17T16:43:19;6.07;;;0.95;;
19002;SDS011;9634;51.040;13.794;2022-07-17T16:48:22;3.47;;;1.00;;
19002;SDS011;9634;51.040;13.794;2022-07-17T16:53:25;2.47;;;1.00;;
19002;SDS011;9634;51.040;13.794;2022-07-17T16:58:28;5.88;;;1.35;;
19002;SDS011;9634;51.040;13.794;2022-07-17T17:03:32;3.75;;;1.40;;
19002;SDS011;9634;51.040;13.794;2022-07-17T17:08:34;4.93;;;1.20;;
19002;SDS011;9634;51.040;13.794;2022-07-17T17:13:36;1.60;;;1.20;;
19002;SDS011;9634;51.040;13.794;2022-07-17T17:18:40;1.85;;;1.25;;
19002;SDS011;9634;51.040;13.794;2022-07-17T17:23:43;7.65;;;1.40;;
19002;SDS011;9634;51.040;13.794;2022-07-17T17:28:45;4.68;;;1.35;;
19002;SDS011;9634;51.040;13.794;2022-07-17T17:33:49;6.13;;;1.58;;
19002;SDS011;9634;51.040;13.794;2022-07-17T17:38:54;5.63;;;1.30;;
19002;SDS011;9634;51.040;13.794;2022-07-17T17:43:56;7.53;;;2.10;;
19002;SDS011;9634;51.040;13.794;2022-07-17T17:49:00;3.53;;;1.35;;
19002;SDS011;9634;51.040;13.794;2022-07-17T17:54:03;3.45;;;1.48;;
19002;SDS011;9634;51.040;13.794;2022-07-17T17:59:05;3.10;;;1.45;;
19002;SDS011;9634;51.040;13.794;2022-07-17T18:04:09;4.10;;;1.30;;
19002;SDS011;9634;51.040;13.794;2022-07-17T18:09:12;3.15;;;1.38;;
19002;SDS011;9634;51.040;13.794;2022-07-17T18:14:14;7.00;;;1.80;;
19002;SDS011;9634;51.040;13.794;2022-07-17T18:19:18;4.93;;;1.42;;
19002;SDS011;9634;51.040;13.794;2022-07-17T18:24:20;5.33;;;1.50;;
19002;SDS011;9634;51.040;13.794;2022-07-17T18:29:23;5.30;;;1.70;;
19002;SDS011;9634;51.040;13.794;2022-07-17T18:34:27;5.43;;;1.80;;
19002;SDS011;9634;51.040;13.794;2022-07-17T18:39:30;5.73;;;1.30;;
19002;SDS011;9634;51.040;13.794;2022-07-17T18:44:32;2.30;;;1.17;;
19002;SDS011;9634;51.040;13.794;2022-07-17T18:49:36;4.87;;;1.60;;
19002;SDS011;9634;51.040;13.794;2022-07-17T18:54:40;3.30;;;1.50;;
19002;SDS011;9634;51.040;13.794;2022-07-17T18:59:42;4.10;;;1.40;;
19002;SDS011;9634;51.040;13.794;2022-07-17T19:04:46;6.20;;;2.10;;
19002;SDS011;9634;51.040;13.794;2022-07-17T19:09:48;5.90;;;1.40;;
19002;SDS011;9634;51.040;13.794;2022-07-17T19:14:50;6.37;;;1.67;;
19002;SDS011;9634;51.040;13.794;2022-07-17T19:19:54;7.97;;;2.30;;
19002;SDS011;9634;51.040;13.794;2022-07-17T19:24:57;5.37;;;1.90;;
19002;SDS011;9634;51.040;13.794;2022-07-17T19:29:59;5.57;;;2.00;;
19002;SDS011;9634;51.040;13.794;2022-07-17T19:35:03;7.77;;;2.20;;
19002;SDS011;9634;51.040;13.794;2022-07-17T19:40:06;12.10;;;2.83;;
19002;SDS011;9634;51.040;13.794;2022-07-17T19:45:09;6.33;;;2.57;;
19002;SDS011;9634;51.040;13.794;2022-07-17T19:50:14;5.60;;;2.87;;
19002;SDS011;9634;51.040;13.794;2022-07-17T19:55:17;8.43;;;2.57;;
19002;SDS011;9634;51.040;13.794;2022-07-17T20:00:19;7.13;;;2.67;;
19002;SDS011;9634;51.040;13.794;2022-07-17T20:05:23;5.87;;;2.40;;
19002;SDS011;9634;51.040;13.794;2022-07-17T20:10:25;5.70;;;2.90;;
19002;SDS011;9634;51.040;13.794;2022-07-17T20:15:27;7.27;;;2.60;;
19002;SDS011;9634;51.040;13.794;2022-07-17T20:20:31;7.03;;;2.60;;
19002;SDS011;9634;51.040;13.794;2022-07-17T20:25:34;5.37;;;2.50;;
19002;SDS011;9634;51.040;13.794;2022-07-17T20:30:36;4.83;;;2.97;;
19002;SDS011;9634;51.040;13.794;2022-07-17T20:35:40;9.60;;;2.60;;
19002;SDS011;9634;51.040;13.794;2022-07-17T20:40:45;5.03;;;2.93;;
19002;SDS011;9634;51.040;13.794;2022-07-17T20:45:48;7.10;;;4.10;;
19002;SDS011;9634;51.040;13.794;2022-07-17T20:50:52;5.93;;;3.23;;
19002;SDS011;9634;51.040;13.794;2022-07-17T20:55:54;8.67;;;3.53;;
19002;SDS011;9634;51.040;13.794;2022-07-17T21:00:56;8.87;;;3.23;;
19002;SDS011;9634;51.040;13.794;2022-07-17T21:06:02;7.97;;;3.50;;
19002;SDS011;9634;51.040;13.794;2022-07-17T21:11:07;6.40;;;2.93;;
19002;SDS011;9634;51.040;13.794;2022-07-17T21:16:10;5.00;;;2.80;;
19002;SDS011;9634;51.040;13.794;2022-07-17T21:21:14;7.57;;;2.73;;
19002;SDS011;9634;51.040;13.794;2022-07-17T21:26:16;8.83;;;3.00;;
19002;SDS011;9634;51.040;13.794;2022-07-17T21:31:19;5.53;;;2.60;;
19002;SDS011;9634;51.040;13.794;2022-07-17T21:36:22;7.07;;;2.60;;
19002;SDS011;9634;51.040;13.794;2022-07-17T21:41:25;6.73;;;2.47;;
19002;SDS011;9634;51.040;13.794;2022-07-17T21:46:27;6.43;;;2.20;;
19002;SDS011;9634;51.040;13.794;2022-07-17T21:51:31;3.90;;;2.30;;
19002;SDS011;9634;51.040;13.794;2022-07-17T21:56:33;5.37;;;2.23;;
19002;SDS011;9634;51.040;13.794;2022-07-17T22:01:36;6.90;;;2.13;;
19002;SDS011;9634;51.040;13.794;2022-07-17T22:06:40;7.90;;;2.47;;
19002;SDS011;9634;51.040;13.794;2022-07-17T22:11:42;5.03;;;2.23;;
19002;SDS011;9634;51.040;13.794;2022-07-17T22:16:45;9.03;;;2.33;;
19002;SDS011;9634;51.040;13.794;2022-07-17T22:21:49;4.40;;;1.93;;
19002;SDS011;9634;51.040;13.794;2022-07-17T22:26:52;4.20;;;2.30;;
19002;SDS011;9634;51.040;13.794;2022-07-17T22:31:55;6.33;;;2.10;;
19002;SDS011;9634;51.040;13.794;2022-07-17T22:36:59;5.87;;;1.80;;
19002;SDS011;9634;51.040;13.794;2022-07-17T22:42:03;4.70;;;1.90;;
19002;SDS011;9634;51.040;13.794;2022-07-17T22:47:06;3.30;;;1.80;;
19002;SDS011;9634;51.040;13.794;2022-07-17T22:52:10;4.93;;;1.77;;
19002;SDS011;9634;51.040;13.794;2022-07-17T22:57:12;5.30;;;1.83;;
19002;SDS011;9634;51.040;13.794;2022-07-17T23:02:14;7.07;;;1.53;;
19002;SDS011;9634;51.040;13.794;2022-07-17T23:07:19;4.10;;;1.90;;
19002;SDS011;9634;51.040;13.794;2022-07-17T23:12:21;11.07;;;2.37;;
19002;SDS011;9634;51.040;13.794;2022-07-17T23:17:24;6.20;;;1.47;;
19002;SDS011;9634;51.040;13.794;2022-07-17T23:22:27;6.07;;;1.57;;
19002;SDS011;9634;51.040;13.794;2022-07-17T23:27:30;6.43;;;1.83;;
19002;SDS011;9634;51.040;13.794;2022-07-17T23:32:32;6.53;;;1.83;;
19002;SDS011;9634;51.040;13.794;2022-07-17T23:37:36;6.20;;;1.73;;
19002;SDS011;9634;51.040;13.794;2022-07-17T23:42:39;4.23;;;1.40;;
19002;SDS011;9634;51.040;13.794;2022-07-17T23:47:41;3.53;;;1.43;;
19002;SDS011;9634;51.040;13.794;2022-07-17T23:52:45;3.10;;;1.57;;
19002;SDS011;9634;51.040;13.794;2022-07-17T23:57:48;3.03;;;1.20;;
